sensor_id;sensor_type;location;lat;lon;timestamp;P1;durP1;ratioP1;P2;durP2;ratioP2
48006;SDS011;33771;48.180;11.400;2023-07-31T00:00:26;8.95;;;2.47;;
48006;SDS011;33771;48.180;11.400;2023-07-31T00:02:52;7.20;;;2.20;;
48006;SDS011;33771;48.180;11.400;2023-07-31T00:05:17;5.13;;;2.10;;
48006;SDS011;33771;48.180;11.400;2023-07-31T00:07:43;7.70;;;2.33;;
48006;SDS011;33771;48.180;11.400;2023-07-31T00:10:09;5.20;;;2.40;;
48006;SDS011;33771;48.180;11.400;2023-07-31T00:12:34;9.50;;;2.20;;
48006;SDS011;33771;48.180;11.400;2023-07-31T00:15:00;7.57;;;2.45;;
48006;SDS011;33771;48.180;11.400;2023-07-31T00:17:26;7.30;;;2.05;;
48006;SDS011;33771;48.180;11.400;2023-07-31T00:19:51;4.55;;;2.25;;
48006;SDS011;33771;48.180;11.400;2023-07-31T00:22:17;4.03;;;1.98;;
48006;SDS011;33771;48.180;11.400;2023-07-31T00:24:42;6.00;;;2.35;;
48006;SDS011;33771;48.180;11.400;2023-07-31T00:27:08;6.00;;;2.10;;
48006;SDS011;33771;48.180;11.400;2023-07-31T00:29:33;6.75;;;2.50;;
48006;SDS011;33771;48.180;11.400;2023-07-31T00:31:59;5.95;;;2.40;;
48006;SDS011;33771;48.180;11.400;2023-07-31T00:34:24;6.70;;;2.10;;
48006;SDS011;33771;48.180;11.400;2023-07-31T00:36:50;5.88;;;2.05;;
48006;SDS011;33771;48.180;11.400;2023-07-31T00:39:17;4.45;;;2.10;;
48006;SDS011;33771;48.180;11.400;2023-07-31T00:41:42;8.05;;;2.05;;
48006;SDS011;33771;48.180;11.400;2023-07-31T00:44:08;5.72;;;2.10;;
48006;SDS011;33771;48.180;11.400;2023-07-31T00:46:33;4.72;;;2.08;;
48006;SDS011;33771;48.180;11.400;2023-07-31T00:48:59;4.80;;;2.10;;
48006;SDS011;33771;48.180;11.400;2023-07-31T00:51:24;5.97;;;2.17;;
48006;SDS011;33771;48.180;11.400;2023-07-31T00:53:50;5.07;;;2.58;;
48006;SDS011;33771;48.180;11.400;2023-07-31T00:56:19;6.07;;;2.20;;
48006;SDS011;33771;48.180;11.400;2023-07-31T00:58:44;7.35;;;2.08;;
48006;SDS011;33771;48.180;11.400;2023-07-31T01:01:10;8.80;;;2.08;;
48006;SDS011;33771;48.180;11.400;2023-07-31T01:03:35;11.75;;;3.85;;
48006;SDS011;33771;48.180;11.400;2023-07-31T01:11:25;7.07;;;2.00;;
48006;SDS011;33771;48.180;11.400;2023-07-31T01:13:56;6.38;;;2.28;;
48006;SDS011;33771;48.180;11.400;2023-07-31T01:16:22;8.85;;;1.98;;
48006;SDS011;33771;48.180;11.400;2023-07-31T01:18:49;4.05;;;2.05;;
48006;SDS011;33771;48.180;11.400;2023-07-31T01:27:24;8.52;;;2.60;;
48006;SDS011;33771;48.180;11.400;2023-07-31T01:32:40;5.13;;;2.10;;
48006;SDS011;33771;48.180;11.400;2023-07-31T01:35:08;4.57;;;2.38;;
48006;SDS011;33771;48.180;11.400;2023-07-31T01:37:34;4.55;;;2.08;;
48006;SDS011;33771;48.180;11.400;2023-07-31T01:39:59;5.18;;;2.10;;
48006;SDS011;33771;48.180;11.400;2023-07-31T01:42:25;6.57;;;2.40;;
48006;SDS011;33771;48.180;11.400;2023-07-31T01:44:51;5.60;;;2.20;;
48006;SDS011;33771;48.180;11.400;2023-07-31T01:47:16;3.80;;;2.05;;
48006;SDS011;33771;48.180;11.400;2023-07-31T01:49:42;4.80;;;2.10;;
48006;SDS011;33771;48.180;11.400;2023-07-31T01:52:07;4.82;;;2.40;;
48006;SDS011;33771;48.180;11.400;2023-07-31T01:54:33;6.65;;;2.20;;
48006;SDS011;33771;48.180;11.400;2023-07-31T01:56:58;6.43;;;2.78;;
48006;SDS011;33771;48.180;11.400;2023-07-31T01:59:24;4.07;;;2.13;;
48006;SDS011;33771;48.180;11.400;2023-07-31T02:01:49;7.10;;;2.30;;
48006;SDS011;33771;48.180;11.400;2023-07-31T02:04:15;9.85;;;2.45;;
48006;SDS011;33771;48.180;11.400;2023-07-31T02:06:41;5.95;;;2.25;;
48006;SDS011;33771;48.180;11.400;2023-07-31T02:09:06;7.30;;;2.17;;
48006;SDS011;33771;48.180;11.400;2023-07-31T02:11:32;4.93;;;1.90;;
48006;SDS011;33771;48.180;11.400;2023-07-31T02:13:57;4.88;;;1.92;;
48006;SDS011;33771;48.180;11.400;2023-07-31T02:16:23;3.97;;;2.10;;
48006;SDS011;33771;48.180;11.400;2023-07-31T02:18:48;3.83;;;2.20;;
48006;SDS011;33771;48.180;11.400;2023-07-31T02:21:14;5.18;;;2.30;;
48006;SDS011;33771;48.180;11.400;2023-07-31T02:23:39;6.40;;;2.50;;
48006;SDS011;33771;48.180;11.400;2023-07-31T02:26:05;3.03;;;1.77;;
48006;SDS011;33771;48.180;11.400;2023-07-31T02:28:30;5.60;;;2.10;;
48006;SDS011;33771;48.180;11.400;2023-07-31T02:30:56;4.80;;;1.90;;
48006;SDS011;33771;48.180;11.400;2023-07-31T02:33:21;6.53;;;2.20;;
48006;SDS011;33771;48.180;11.400;2023-07-31T02:35:47;4.57;;;2.00;;
48006;SDS011;33771;48.180;11.400;2023-07-31T02:38:12;8.07;;;2.40;;
48006;SDS011;33771;48.180;11.400;2023-07-31T02:40:39;6.25;;;2.05;;
48006;SDS011;33771;48.180;11.400;2023-07-31T02:43:06;8.27;;;1.92;;
48006;SDS011;33771;48.180;11.400;2023-07-31T02:45:32;5.03;;;2.53;;
48006;SDS011;33771;48.180;11.400;2023-07-31T02:47:57;4.78;;;2.15;;
48006;SDS011;33771;48.180;11.400;2023-07-31T02:50:23;10.55;;;2.72;;
48006;SDS011;33771;48.180;11.400;2023-07-31T02:52:48;7.40;;;2.10;;
48006;SDS011;33771;48.180;11.400;2023-07-31T02:55:14;6.53;;;2.75;;
48006;SDS011;33771;48.180;11.400;2023-07-31T02:57:39;12.00;;;2.53;;
48006;SDS011;33771;48.180;11.400;2023-07-31T03:00:05;6.18;;;2.35;;
48006;SDS011;33771;48.180;11.400;2023-07-31T03:02:31;10.90;;;3.33;;
48006;SDS011;33771;48.180;11.400;2023-07-31T03:04:57;6.55;;;2.40;;
48006;SDS011;33771;48.180;11.400;2023-07-31T03:07:23;8.52;;;2.67;;
48006;SDS011;33771;48.180;11.400;2023-07-31T03:09:48;5.07;;;2.17;;
48006;SDS011;33771;48.180;11.400;2023-07-31T03:12:14;4.95;;;2.40;;
48006;SDS011;33771;48.180;11.400;2023-07-31T03:14:39;5.07;;;2.17;;
48006;SDS011;33771;48.180;11.400;2023-07-31T03:17:05;6.18;;;2.58;;
48006;SDS011;33771;48.180;11.400;2023-07-31T03:19:31;6.93;;;2.90;;
48006;SDS011;33771;48.180;11.400;2023-07-31T03:21:57;6.10;;;2.40;;
48006;SDS011;33771;48.180;11.400;2023-07-31T03:24:23;10.27;;;2.70;;
48006;SDS011;33771;48.180;11.400;2023-07-31T03:26:49;6.50;;;2.38;;
48006;SDS011;33771;48.180;11.400;2023-07-31T03:29:14;4.88;;;2.08;;
48006;SDS011;33771;48.180;11.400;2023-07-31T03:31:40;6.15;;;2.28;;
48006;SDS011;33771;48.180;11.400;2023-07-31T03:34:05;5.55;;;2.35;;
48006;SDS011;33771;48.180;11.400;2023-07-31T03:36:31;7.65;;;2.58;;
48006;SDS011;33771;48.180;11.400;2023-07-31T03:38:56;4.63;;;2.30;;
48006;SDS011;33771;48.180;11.400;2023-07-31T03:41:22;5.90;;;2.72;;
48006;SDS011;33771;48.180;11.400;2023-07-31T03:43:49;6.07;;;2.67;;
48006;SDS011;33771;48.180;11.400;2023-07-31T03:46:17;4.95;;;2.72;;
48006;SDS011;33771;48.180;11.400;2023-07-31T03:48:42;4.93;;;2.53;;
48006;SDS011;33771;48.180;11.400;2023-07-31T03:51:08;11.65;;;2.20;;
48006;SDS011;33771;48.180;11.400;2023-07-31T03:53:33;5.18;;;2.45;;
48006;SDS011;33771;48.180;11.400;2023-07-31T03:55:59;6.95;;;2.90;;
48006;SDS011;33771;48.180;11.400;2023-07-31T03:58:24;11.63;;;2.75;;
48006;SDS011;33771;48.180;11.400;2023-07-31T04:00:50;6.28;;;2.58;;
48006;SDS011;33771;48.180;11.400;2023-07-31T04:03:15;6.40;;;2.50;;
48006;SDS011;33771;48.180;11.400;2023-07-31T04:05:41;6.65;;;2.78;;
48006;SDS011;33771;48.180;11.400;2023-07-31T04:08:06;7.97;;;3.05;;
48006;SDS011;33771;48.180;11.400;2023-07-31T04:10:32;5.25;;;2.28;;
48006;SDS011;33771;48.180;11.400;2023-07-31T04:12:58;9.43;;;2.83;;
48006;SDS011;33771;48.180;11.400;2023-07-31T04:15:25;6.80;;;3.05;;
48006;SDS011;33771;48.180;11.400;2023-07-31T04:17:51;8.20;;;3.10;;
48006;SDS011;33771;48.180;11.400;2023-07-31T04:20:16;6.47;;;2.50;;
48006;SDS011;33771;48.180;11.400;2023-07-31T04:22:42;5.85;;;3.13;;
48006;SDS011;33771;48.180;11.400;2023-07-31T04:25:08;8.10;;;2.97;;
48006;SDS011;33771;48.180;11.400;2023-07-31T04:27:33;6.38;;;2.97;;
48006;SDS011;33771;48.180;11.400;2023-07-31T04:29:59;8.57;;;3.67;;
48006;SDS011;33771;48.180;11.400;2023-07-31T04:32:24;9.75;;;3.83;;
48006;SDS011;33771;48.180;11.400;2023-07-31T04:34:50;9.65;;;3.50;;
48006;SDS011;33771;48.180;11.400;2023-07-31T04:37:15;8.73;;;3.80;;
48006;SDS011;33771;48.180;11.400;2023-07-31T04:39:41;6.22;;;3.08;;
48006;SDS011;33771;48.180;11.400;2023-07-31T04:42:06;7.95;;;3.58;;
48006;SDS011;33771;48.180;11.400;2023-07-31T04:44:32;7.15;;;3.10;;
48006;SDS011;33771;48.180;11.400;2023-07-31T04:46:57;6.05;;;2.97;;
48006;SDS011;33771;48.180;11.400;2023-07-31T04:49:23;10.13;;;3.88;;
48006;SDS011;33771;48.180;11.400;2023-07-31T04:51:48;11.20;;;3.67;;
48006;SDS011;33771;48.180;11.400;2023-07-31T04:54:14;6.68;;;3.80;;
48006;SDS011;33771;48.180;11.400;2023-07-31T04:56:40;9.50;;;3.63;;
48006;SDS011;33771;48.180;11.400;2023-07-31T04:59:06;5.90;;;3.00;;
48006;SDS011;33771;48.180;11.400;2023-07-31T05:01:31;5.32;;;2.95;;
48006;SDS011;33771;48.180;11.400;2023-07-31T05:03:57;8.88;;;3.13;;
48006;SDS011;33771;48.180;11.400;2023-07-31T05:06:23;5.78;;;2.85;;
48006;SDS011;33771;48.180;11.400;2023-07-31T05:08:48;4.97;;;2.67;;
48006;SDS011;33771;48.180;11.400;2023-07-31T05:11:14;4.68;;;2.88;;
48006;SDS011;33771;48.180;11.400;2023-07-31T05:13:39;4.50;;;2.65;;
48006;SDS011;33771;48.180;11.400;2023-07-31T05:16:05;5.38;;;2.65;;
48006;SDS011;33771;48.180;11.400;2023-07-31T05:18:30;6.43;;;2.70;;
48006;SDS011;33771;48.180;11.400;2023-07-31T05:20:56;4.85;;;2.00;;
48006;SDS011;33771;48.180;11.400;2023-07-31T05:23:21;7.72;;;2.58;;
48006;SDS011;33771;48.180;11.400;2023-07-31T05:25:47;4.28;;;2.50;;
48006;SDS011;33771;48.180;11.400;2023-07-31T05:28:12;7.18;;;2.30;;
48006;SDS011;33771;48.180;11.400;2023-07-31T05:30:38;7.72;;;2.67;;
48006;SDS011;33771;48.180;11.400;2023-07-31T05:33:03;5.07;;;2.40;;
48006;SDS011;33771;48.180;11.400;2023-07-31T05:35:29;4.85;;;2.20;;
48006;SDS011;33771;48.180;11.400;2023-07-31T05:37:54;4.40;;;2.10;;
48006;SDS011;33771;48.180;11.400;2023-07-31T05:40:20;5.55;;;2.40;;
48006;SDS011;33771;48.180;11.400;2023-07-31T05:42:45;4.22;;;2.15;;
48006;SDS011;33771;48.180;11.400;2023-07-31T05:45:11;5.72;;;2.50;;
48006;SDS011;33771;48.180;11.400;2023-07-31T05:47:38;2.97;;;1.80;;
48006;SDS011;33771;48.180;11.400;2023-07-31T05:50:04;3.78;;;2.20;;
48006;SDS011;33771;48.180;11.400;2023-07-31T05:52:30;6.07;;;2.17;;
48006;SDS011;33771;48.180;11.400;2023-07-31T05:54:55;6.82;;;2.55;;
48006;SDS011;33771;48.180;11.400;2023-07-31T05:57:21;3.92;;;2.33;;
48006;SDS011;33771;48.180;11.400;2023-07-31T05:59:46;5.90;;;2.30;;
48006;SDS011;33771;48.180;11.400;2023-07-31T06:02:12;8.63;;;2.58;;
48006;SDS011;33771;48.180;11.400;2023-07-31T06:04:38;5.93;;;2.42;;
48006;SDS011;33771;48.180;11.400;2023-07-31T06:07:03;5.25;;;2.30;;
48006;SDS011;33771;48.180;11.400;2023-07-31T06:09:29;4.10;;;2.28;;
48006;SDS011;33771;48.180;11.400;2023-07-31T06:11:55;5.93;;;2.40;;
48006;SDS011;33771;48.180;11.400;2023-07-31T06:14:20;8.57;;;2.40;;
48006;SDS011;33771;48.180;11.400;2023-07-31T06:16:46;4.40;;;2.70;;
48006;SDS011;33771;48.180;11.400;2023-07-31T06:19:11;4.15;;;2.40;;
48006;SDS011;33771;48.180;11.400;2023-07-31T06:21:37;4.18;;;2.10;;
48006;SDS011;33771;48.180;11.400;2023-07-31T06:24:04;6.40;;;2.35;;
48006;SDS011;33771;48.180;11.400;2023-07-31T06:26:30;5.80;;;2.78;;
48006;SDS011;33771;48.180;11.400;2023-07-31T06:28:56;6.20;;;2.50;;
48006;SDS011;33771;48.180;11.400;2023-07-31T06:31:22;6.05;;;2.38;;
48006;SDS011;33771;48.180;11.400;2023-07-31T06:33:51;5.80;;;2.20;;
48006;SDS011;33771;48.180;11.400;2023-07-31T06:36:17;6.28;;;2.35;;
48006;SDS011;33771;48.180;11.400;2023-07-31T06:38:43;5.57;;;2.00;;
48006;SDS011;33771;48.180;11.400;2023-07-31T06:41:08;4.43;;;2.28;;
48006;SDS011;33771;48.180;11.400;2023-07-31T06:43:35;6.80;;;2.40;;
48006;SDS011;33771;48.180;11.400;2023-07-31T06:46:05;5.32;;;2.35;;
48006;SDS011;33771;48.180;11.400;2023-07-31T06:48:31;6.43;;;2.33;;
48006;SDS011;33771;48.180;11.400;2023-07-31T06:50:58;7.68;;;2.53;;
48006;SDS011;33771;48.180;11.400;2023-07-31T06:53:23;5.05;;;2.53;;
48006;SDS011;33771;48.180;11.400;2023-07-31T06:55:49;3.95;;;2.13;;
48006;SDS011;33771;48.180;11.400;2023-07-31T06:58:16;6.43;;;2.50;;
48006;SDS011;33771;48.180;11.400;2023-07-31T07:00:42;5.22;;;2.22;;
48006;SDS011;33771;48.180;11.400;2023-07-31T07:03:08;6.97;;;2.13;;
48006;SDS011;33771;48.180;11.400;2023-07-31T07:05:33;7.88;;;2.58;;
48006;SDS011;33771;48.180;11.400;2023-07-31T07:07:59;4.53;;;2.38;;
48006;SDS011;33771;48.180;11.400;2023-07-31T07:10:25;3.63;;;2.00;;
48006;SDS011;33771;48.180;11.400;2023-07-31T07:12:50;4.88;;;2.22;;
48006;SDS011;33771;48.180;11.400;2023-07-31T07:15:16;8.38;;;2.25;;
48006;SDS011;33771;48.180;11.400;2023-07-31T07:17:42;4.78;;;2.05;;
48006;SDS011;33771;48.180;11.400;2023-07-31T07:20:07;4.07;;;2.20;;
48006;SDS011;33771;48.180;11.400;2023-07-31T07:22:33;3.58;;;1.80;;
48006;SDS011;33771;48.180;11.400;2023-07-31T07:24:59;4.70;;;2.10;;
48006;SDS011;33771;48.180;11.400;2023-07-31T07:27:24;4.25;;;1.95;;
48006;SDS011;33771;48.180;11.400;2023-07-31T07:29:50;4.90;;;2.08;;
48006;SDS011;33771;48.180;11.400;2023-07-31T07:32:17;11.80;;;2.00;;
48006;SDS011;33771;48.180;11.400;2023-07-31T07:34:43;3.78;;;1.75;;
48006;SDS011;33771;48.180;11.400;2023-07-31T07:37:09;5.45;;;2.00;;
48006;SDS011;33771;48.180;11.400;2023-07-31T07:39:34;5.47;;;2.38;;
48006;SDS011;33771;48.180;11.400;2023-07-31T07:42:00;4.75;;;1.88;;
48006;SDS011;33771;48.180;11.400;2023-07-31T07:44:25;2.63;;;1.70;;
48006;SDS011;33771;48.180;11.400;2023-07-31T07:46:51;4.03;;;1.90;;
48006;SDS011;33771;48.180;11.400;2023-07-31T07:49:17;5.35;;;1.80;;
48006;SDS011;33771;48.180;11.400;2023-07-31T07:51:43;2.90;;;1.70;;
48006;SDS011;33771;48.180;11.400;2023-07-31T07:54:08;12.63;;;2.10;;
48006;SDS011;33771;48.180;11.400;2023-07-31T07:56:34;7.10;;;2.20;;
48006;SDS011;33771;48.180;11.400;2023-07-31T07:59:01;5.60;;;2.10;;
48006;SDS011;33771;48.180;11.400;2023-07-31T08:01:26;3.75;;;1.88;;
48006;SDS011;33771;48.180;11.400;2023-07-31T08:03:52;4.43;;;1.90;;
48006;SDS011;33771;48.180;11.400;2023-07-31T08:06:18;4.70;;;1.80;;
48006;SDS011;33771;48.180;11.400;2023-07-31T08:08:44;3.70;;;1.80;;
48006;SDS011;33771;48.180;11.400;2023-07-31T08:11:09;7.90;;;2.05;;
48006;SDS011;33771;48.180;11.400;2023-07-31T08:13:35;6.15;;;2.00;;
48006;SDS011;33771;48.180;11.400;2023-07-31T08:16:02;4.97;;;1.90;;
48006;SDS011;33771;48.180;11.400;2023-07-31T08:18:28;4.70;;;1.85;;
48006;SDS011;33771;48.180;11.400;2023-07-31T08:20:53;6.53;;;1.90;;
48006;SDS011;33771;48.180;11.400;2023-07-31T08:23:19;3.95;;;1.60;;
48006;SDS011;33771;48.180;11.400;2023-07-31T08:25:45;5.75;;;2.15;;
48006;SDS011;33771;48.180;11.400;2023-07-31T08:28:11;4.32;;;1.70;;
48006;SDS011;33771;48.180;11.400;2023-07-31T08:30:36;4.70;;;2.00;;
48006;SDS011;33771;48.180;11.400;2023-07-31T08:33:02;7.05;;;2.55;;
48006;SDS011;33771;48.180;11.400;2023-07-31T08:35:27;5.20;;;2.05;;
48006;SDS011;33771;48.180;11.400;2023-07-31T08:37:53;4.65;;;1.80;;
48006;SDS011;33771;48.180;11.400;2023-07-31T08:40:19;5.35;;;1.88;;
48006;SDS011;33771;48.180;11.400;2023-07-31T08:42:46;5.03;;;2.00;;
48006;SDS011;33771;48.180;11.400;2023-07-31T08:45:14;6.30;;;2.28;;
48006;SDS011;33771;48.180;11.400;2023-07-31T08:47:42;3.63;;;1.90;;
48006;SDS011;33771;48.180;11.400;2023-07-31T08:50:16;5.72;;;1.65;;
48006;SDS011;33771;48.180;11.400;2023-07-31T08:52:43;4.88;;;2.05;;
48006;SDS011;33771;48.180;11.400;2023-07-31T08:55:09;5.53;;;2.05;;
48006;SDS011;33771;48.180;11.400;2023-07-31T08:57:35;7.13;;;2.10;;
48006;SDS011;33771;48.180;11.400;2023-07-31T09:00:02;7.55;;;1.85;;
48006;SDS011;33771;48.180;11.400;2023-07-31T09:02:31;6.38;;;2.30;;
48006;SDS011;33771;48.180;11.400;2023-07-31T09:05:09;4.97;;;1.98;;
48006;SDS011;33771;48.180;11.400;2023-07-31T09:07:36;4.93;;;2.00;;
48006;SDS011;33771;48.180;11.400;2023-07-31T09:10:03;3.92;;;1.60;;
48006;SDS011;33771;48.180;11.400;2023-07-31T09:12:29;4.88;;;1.75;;
48006;SDS011;33771;48.180;11.400;2023-07-31T09:14:56;5.25;;;2.40;;
48006;SDS011;33771;48.180;11.400;2023-07-31T09:17:32;4.80;;;1.70;;
48006;SDS011;33771;48.180;11.400;2023-07-31T09:20:12;6.95;;;2.28;;
48006;SDS011;33771;48.180;11.400;2023-07-31T09:22:45;5.50;;;2.10;;
48006;SDS011;33771;48.180;11.400;2023-07-31T09:27:47;7.15;;;2.00;;
48006;SDS011;33771;48.180;11.400;2023-07-31T09:30:18;7.60;;;1.80;;
48006;SDS011;33771;48.180;11.400;2023-07-31T09:32:45;5.60;;;2.13;;
48006;SDS011;33771;48.180;11.400;2023-07-31T09:35:22;4.30;;;1.65;;
48006;SDS011;33771;48.180;11.400;2023-07-31T09:37:48;6.45;;;2.00;;
48006;SDS011;33771;48.180;11.400;2023-07-31T09:42:55;4.65;;;1.77;;
48006;SDS011;33771;48.180;11.400;2023-07-31T09:45:22;4.07;;;1.80;;
48006;SDS011;33771;48.180;11.400;2023-07-31T09:47:48;4.93;;;2.05;;
48006;SDS011;33771;48.180;11.400;2023-07-31T09:50:14;5.60;;;1.80;;
48006;SDS011;33771;48.180;11.400;2023-07-31T09:52:41;6.13;;;2.08;;
48006;SDS011;33771;48.180;11.400;2023-07-31T09:55:07;7.32;;;1.90;;
48006;SDS011;33771;48.180;11.400;2023-07-31T09:57:33;4.88;;;2.38;;
48006;SDS011;33771;48.180;11.400;2023-07-31T09:59:59;4.13;;;1.95;;
48006;SDS011;33771;48.180;11.400;2023-07-31T10:02:25;5.18;;;1.92;;
48006;SDS011;33771;48.180;11.400;2023-07-31T10:04:53;5.30;;;1.80;;
48006;SDS011;33771;48.180;11.400;2023-07-31T10:07:23;6.50;;;2.03;;
48006;SDS011;33771;48.180;11.400;2023-07-31T10:09:51;3.40;;;1.80;;
48006;SDS011;33771;48.180;11.400;2023-07-31T10:12:19;6.30;;;2.03;;
48006;SDS011;33771;48.180;11.400;2023-07-31T10:14:46;4.97;;;2.00;;
48006;SDS011;33771;48.180;11.400;2023-07-31T10:17:11;5.72;;;1.80;;
48006;SDS011;33771;48.180;11.400;2023-07-31T10:19:38;4.72;;;1.80;;
48006;SDS011;33771;48.180;11.400;2023-07-31T10:22:05;5.55;;;1.85;;
48006;SDS011;33771;48.180;11.400;2023-07-31T10:24:31;4.15;;;2.10;;
48006;SDS011;33771;48.180;11.400;2023-07-31T10:26:58;4.43;;;1.88;;
48006;SDS011;33771;48.180;11.400;2023-07-31T10:29:26;3.65;;;1.60;;
48006;SDS011;33771;48.180;11.400;2023-07-31T10:31:54;4.95;;;2.08;;
48006;SDS011;33771;48.180;11.400;2023-07-31T10:34:23;4.82;;;2.22;;
48006;SDS011;33771;48.180;11.400;2023-07-31T10:36:49;3.95;;;1.85;;
48006;SDS011;33771;48.180;11.400;2023-07-31T10:39:34;4.03;;;1.80;;
48006;SDS011;33771;48.180;11.400;2023-07-31T10:42:11;3.65;;;1.90;;
48006;SDS011;33771;48.180;11.400;2023-07-31T10:44:37;5.07;;;2.40;;
48006;SDS011;33771;48.180;11.400;2023-07-31T10:47:08;4.25;;;1.77;;
48006;SDS011;33771;48.180;11.400;2023-07-31T10:49:33;4.82;;;2.00;;
48006;SDS011;33771;48.180;11.400;2023-07-31T10:51:59;7.78;;;2.40;;
48006;SDS011;33771;48.180;11.400;2023-07-31T10:54:27;5.53;;;1.83;;
48006;SDS011;33771;48.180;11.400;2023-07-31T10:56:53;5.38;;;1.95;;
48006;SDS011;33771;48.180;11.400;2023-07-31T10:59:18;4.82;;;1.80;;
48006;SDS011;33771;48.180;11.400;2023-07-31T11:01:55;4.40;;;1.90;;
48006;SDS011;33771;48.180;11.400;2023-07-31T11:04:27;6.13;;;2.30;;
48006;SDS011;33771;48.180;11.400;2023-07-31T11:07:01;5.30;;;2.00;;
48006;SDS011;33771;48.180;11.400;2023-07-31T11:09:28;3.97;;;1.88;;
48006;SDS011;33771;48.180;11.400;2023-07-31T11:11:55;5.20;;;2.40;;
48006;SDS011;33771;48.180;11.400;2023-07-31T11:14:21;4.47;;;1.90;;
48006;SDS011;33771;48.180;11.400;2023-07-31T11:16:49;5.15;;;1.80;;
48006;SDS011;33771;48.180;11.400;2023-07-31T11:19:21;3.83;;;2.10;;
48006;SDS011;33771;48.180;11.400;2023-07-31T11:21:50;5.05;;;1.75;;
48006;SDS011;33771;48.180;11.400;2023-07-31T11:24:17;5.88;;;1.90;;
48006;SDS011;33771;48.180;11.400;2023-07-31T11:26:50;4.63;;;1.98;;
48006;SDS011;33771;48.180;11.400;2023-07-31T11:29:17;3.25;;;1.63;;
48006;SDS011;33771;48.180;11.400;2023-07-31T11:31:43;4.43;;;1.70;;
48006;SDS011;33771;48.180;11.400;2023-07-31T11:34:09;3.28;;;1.70;;
48006;SDS011;33771;48.180;11.400;2023-07-31T11:36:35;3.72;;;1.70;;
48006;SDS011;33771;48.180;11.400;2023-07-31T11:39:04;4.30;;;1.88;;
48006;SDS011;33771;48.180;11.400;2023-07-31T11:41:31;4.72;;;2.30;;
48006;SDS011;33771;48.180;11.400;2023-07-31T11:44:00;6.53;;;1.92;;
48006;SDS011;33771;48.180;11.400;2023-07-31T11:46:26;4.88;;;2.15;;
48006;SDS011;33771;48.180;11.400;2023-07-31T11:48:58;7.15;;;2.38;;
48006;SDS011;33771;48.180;11.400;2023-07-31T11:51:24;5.25;;;2.22;;
48006;SDS011;33771;48.180;11.400;2023-07-31T11:53:51;4.38;;;2.05;;
48006;SDS011;33771;48.180;11.400;2023-07-31T11:56:20;6.50;;;2.00;;
48006;SDS011;33771;48.180;11.400;2023-07-31T11:58:48;4.45;;;2.22;;
48006;SDS011;33771;48.180;11.400;2023-07-31T12:01:17;5.07;;;1.75;;
48006;SDS011;33771;48.180;11.400;2023-07-31T12:03:44;4.28;;;2.05;;
48006;SDS011;33771;48.180;11.400;2023-07-31T12:06:11;5.60;;;2.10;;
48006;SDS011;33771;48.180;11.400;2023-07-31T12:08:37;5.55;;;1.90;;
48006;SDS011;33771;48.180;11.400;2023-07-31T12:11:06;4.18;;;2.10;;
48006;SDS011;33771;48.180;11.400;2023-07-31T12:13:34;5.03;;;1.95;;
48006;SDS011;33771;48.180;11.400;2023-07-31T12:16:01;3.92;;;2.00;;
48006;SDS011;33771;48.180;11.400;2023-07-31T12:18:28;4.95;;;2.00;;
48006;SDS011;33771;48.180;11.400;2023-07-31T12:23:21;3.65;;;2.00;;
48006;SDS011;33771;48.180;11.400;2023-07-31T12:28:34;4.90;;;2.00;;
48006;SDS011;33771;48.180;11.400;2023-07-31T12:31:05;3.70;;;1.95;;
48006;SDS011;33771;48.180;11.400;2023-07-31T12:33:34;4.32;;;1.83;;
48006;SDS011;33771;48.180;11.400;2023-07-31T12:36:01;3.35;;;1.77;;
48006;SDS011;33771;48.180;11.400;2023-07-31T12:38:28;4.90;;;2.35;;
48006;SDS011;33771;48.180;11.400;2023-07-31T12:40:54;5.85;;;2.00;;
48006;SDS011;33771;48.180;11.400;2023-07-31T12:43:20;6.47;;;2.25;;
48006;SDS011;33771;48.180;11.400;2023-07-31T12:45:45;3.85;;;1.90;;
48006;SDS011;33771;48.180;11.400;2023-07-31T12:48:12;4.57;;;2.10;;
48006;SDS011;33771;48.180;11.400;2023-07-31T12:50:38;4.20;;;2.00;;
48006;SDS011;33771;48.180;11.400;2023-07-31T12:53:04;3.05;;;1.90;;
48006;SDS011;33771;48.180;11.400;2023-07-31T12:55:30;5.25;;;1.90;;
48006;SDS011;33771;48.180;11.400;2023-07-31T12:57:55;7.82;;;2.05;;
48006;SDS011;33771;48.180;11.400;2023-07-31T13:00:21;4.15;;;1.75;;
48006;SDS011;33771;48.180;11.400;2023-07-31T13:02:47;4.50;;;2.22;;
48006;SDS011;33771;48.180;11.400;2023-07-31T13:05:13;4.75;;;2.05;;
48006;SDS011;33771;48.180;11.400;2023-07-31T13:07:39;5.93;;;1.83;;
48006;SDS011;33771;48.180;11.400;2023-07-31T13:10:05;4.20;;;1.70;;
48006;SDS011;33771;48.180;11.400;2023-07-31T13:12:31;3.35;;;1.48;;
48006;SDS011;33771;48.180;11.400;2023-07-31T13:14:57;5.65;;;2.05;;
48006;SDS011;33771;48.180;11.400;2023-07-31T13:17:22;5.35;;;2.05;;
48006;SDS011;33771;48.180;11.400;2023-07-31T13:19:48;6.05;;;2.30;;
48006;SDS011;33771;48.180;11.400;2023-07-31T13:22:14;4.38;;;1.70;;
48006;SDS011;33771;48.180;11.400;2023-07-31T13:24:39;7.13;;;1.70;;
48006;SDS011;33771;48.180;11.400;2023-07-31T13:27:05;4.95;;;1.98;;
48006;SDS011;33771;48.180;11.400;2023-07-31T13:29:30;7.60;;;2.00;;
48006;SDS011;33771;48.180;11.400;2023-07-31T13:31:57;2.90;;;1.60;;
48006;SDS011;33771;48.180;11.400;2023-07-31T13:34:22;3.97;;;2.03;;
48006;SDS011;33771;48.180;11.400;2023-07-31T13:36:48;4.97;;;2.40;;
48006;SDS011;33771;48.180;11.400;2023-07-31T13:39:13;3.90;;;1.83;;
48006;SDS011;33771;48.180;11.400;2023-07-31T13:41:39;6.50;;;2.15;;
48006;SDS011;33771;48.180;11.400;2023-07-31T13:44:04;7.15;;;2.05;;
48006;SDS011;33771;48.180;11.400;2023-07-31T13:46:30;3.63;;;2.10;;
48006;SDS011;33771;48.180;11.400;2023-07-31T13:48:57;3.97;;;2.08;;
48006;SDS011;33771;48.180;11.400;2023-07-31T13:51:24;4.35;;;1.70;;
48006;SDS011;33771;48.180;11.400;2023-07-31T13:53:50;4.97;;;2.00;;
48006;SDS011;33771;48.180;11.400;2023-07-31T13:56:15;5.47;;;2.00;;
48006;SDS011;33771;48.180;11.400;2023-07-31T13:58:41;3.72;;;1.80;;
48006;SDS011;33771;48.180;11.400;2023-07-31T14:01:06;5.35;;;2.58;;
48006;SDS011;33771;48.180;11.400;2023-07-31T14:03:32;3.92;;;1.90;;
48006;SDS011;33771;48.180;11.400;2023-07-31T14:05:58;5.35;;;2.35;;
48006;SDS011;33771;48.180;11.400;2023-07-31T14:08:24;5.18;;;1.80;;
48006;SDS011;33771;48.180;11.400;2023-07-31T14:10:49;4.70;;;2.10;;
48006;SDS011;33771;48.180;11.400;2023-07-31T14:13:15;4.10;;;2.15;;
48006;SDS011;33771;48.180;11.400;2023-07-31T14:15:43;4.18;;;2.00;;
48006;SDS011;33771;48.180;11.400;2023-07-31T14:18:09;4.32;;;2.25;;
48006;SDS011;33771;48.180;11.400;2023-07-31T14:20:35;4.95;;;2.15;;
48006;SDS011;33771;48.180;11.400;2023-07-31T14:23:01;5.43;;;2.30;;
48006;SDS011;33771;48.180;11.400;2023-07-31T14:25:27;5.43;;;1.90;;
48006;SDS011;33771;48.180;11.400;2023-07-31T14:27:53;5.18;;;2.35;;
48006;SDS011;33771;48.180;11.400;2023-07-31T14:30:18;6.25;;;2.20;;
48006;SDS011;33771;48.180;11.400;2023-07-31T14:32:44;3.35;;;2.05;;
48006;SDS011;33771;48.180;11.400;2023-07-31T14:35:09;5.53;;;2.45;;
48006;SDS011;33771;48.180;11.400;2023-07-31T14:37:39;4.55;;;2.20;;
48006;SDS011;33771;48.180;11.400;2023-07-31T14:40:06;4.10;;;2.50;;
48006;SDS011;33771;48.180;11.400;2023-07-31T14:42:34;5.22;;;2.35;;
48006;SDS011;33771;48.180;11.400;2023-07-31T14:45:00;3.63;;;2.30;;
48006;SDS011;33771;48.180;11.400;2023-07-31T14:47:25;4.35;;;2.25;;
48006;SDS011;33771;48.180;11.400;2023-07-31T14:49:51;7.40;;;2.78;;
48006;SDS011;33771;48.180;11.400;2023-07-31T14:52:16;6.32;;;2.90;;